sensor_id;sensor_type;location;lat;lon;timestamp;P1;durP1;ratioP1;P2;durP2;ratioP2
17614;SDS011;8926;49.720;6.576;2022-08-19T00:00:13;4.63;;;4.43;;
17614;SDS011;8926;49.720;6.576;2022-08-19T00:02:40;4.70;;;4.50;;
17614;SDS011;8926;49.720;6.576;2022-08-19T00:05:06;4.87;;;4.60;;
17614;SDS011;8926;49.720;6.576;2022-08-19T00:07:32;5.20;;;4.90;;
17614;SDS011;8926;49.720;6.576;2022-08-19T00:09:58;4.63;;;4.43;;
17614;SDS011;8926;49.720;6.576;2022-08-19T00:12:23;4.50;;;4.30;;
17614;SDS011;8926;49.720;6.576;2022-08-19T00:14:48;5.60;;;5.30;;
17614;SDS011;8926;49.720;6.576;2022-08-19T00:17:14;4.87;;;4.57;;
17614;SDS011;8926;49.720;6.576;2022-08-19T00:19:39;4.40;;;4.20;;
17614;SDS011;8926;49.720;6.576;2022-08-19T00:22:05;4.57;;;4.27;;
17614;SDS011;8926;49.720;6.576;2022-08-19T00:24:33;4.50;;;4.30;;
17614;SDS011;8926;49.720;6.576;2022-08-19T00:27:00;4.23;;;4.03;;
17614;SDS011;8926;49.720;6.576;2022-08-19T00:29:26;4.00;;;3.80;;
17614;SDS011;8926;49.720;6.576;2022-08-19T00:31:53;4.17;;;3.97;;
17614;SDS011;8926;49.720;6.576;2022-08-19T00:34:21;4.30;;;4.10;;
17614;SDS011;8926;49.720;6.576;2022-08-19T00:36:48;4.23;;;4.03;;
17614;SDS011;8926;49.720;6.576;2022-08-19T00:39:14;4.37;;;4.17;;
17614;SDS011;8926;49.720;6.576;2022-08-19T00:41:41;5.90;;;5.60;;
17614;SDS011;8926;49.720;6.576;2022-08-19T00:46:40;5.30;;;4.90;;
17614;SDS011;8926;49.720;6.576;2022-08-19T00:49:27;4.97;;;4.77;;
17614;SDS011;8926;49.720;6.576;2022-08-19T00:51:54;5.20;;;4.90;;
17614;SDS011;8926;49.720;6.576;2022-08-19T00:54:22;5.40;;;5.10;;
17614;SDS011;8926;49.720;6.576;2022-08-19T00:56:48;4.97;;;4.77;;
17614;SDS011;8926;49.720;6.576;2022-08-19T00:59:15;4.80;;;4.60;;
17614;SDS011;8926;49.720;6.576;2022-08-19T01:01:42;5.13;;;4.83;;
17614;SDS011;8926;49.720;6.576;2022-08-19T01:04:09;4.73;;;4.53;;
17614;SDS011;8926;49.720;6.576;2022-08-19T01:06:38;5.50;;;5.20;;
17614;SDS011;8926;49.720;6.576;2022-08-19T01:09:05;5.30;;;5.00;;
17614;SDS011;8926;49.720;6.576;2022-08-19T01:11:33;5.57;;;5.27;;
17614;SDS011;8926;49.720;6.576;2022-08-19T01:14:01;4.80;;;4.50;;
17614;SDS011;8926;49.720;6.576;2022-08-19T01:16:27;5.67;;;5.37;;
17614;SDS011;8926;49.720;6.576;2022-08-19T01:18:54;5.50;;;5.20;;
17614;SDS011;8926;49.720;6.576;2022-08-19T01:21:32;5.13;;;4.90;;
17614;SDS011;8926;49.720;6.576;2022-08-19T01:24:02;5.00;;;4.70;;
17614;SDS011;8926;49.720;6.576;2022-08-19T01:26:28;4.80;;;4.50;;
17614;SDS011;8926;49.720;6.576;2022-08-19T01:28:55;4.70;;;4.50;;
17614;SDS011;8926;49.720;6.576;2022-08-19T01:31:23;4.53;;;4.33;;
17614;SDS011;8926;49.720;6.576;2022-08-19T01:33:51;3.80;;;3.60;;
17614;SDS011;8926;49.720;6.576;2022-08-19T01:36:22;4.77;;;4.57;;
17614;SDS011;8926;49.720;6.576;2022-08-19T01:38:53;3.90;;;3.70;;
17614;SDS011;8926;49.720;6.576;2022-08-19T01:41:19;4.30;;;4.10;;
17614;SDS011;8926;49.720;6.576;2022-08-19T01:43:45;5.27;;;4.97;;
17614;SDS011;8926;49.720;6.576;2022-08-19T01:46:10;5.20;;;5.00;;
17614;SDS011;8926;49.720;6.576;2022-08-19T01:48:38;6.17;;;5.87;;
17614;SDS011;8926;49.720;6.576;2022-08-19T01:51:06;5.33;;;5.03;;
17614;SDS011;8926;49.720;6.576;2022-08-19T01:53:33;4.77;;;4.57;;
17614;SDS011;8926;49.720;6.576;2022-08-19T01:55:58;4.87;;;4.60;;
17614;SDS011;8926;49.720;6.576;2022-08-19T01:58:25;4.73;;;4.50;;
17614;SDS011;8926;49.720;6.576;2022-08-19T02:00:56;5.27;;;4.97;;
17614;SDS011;8926;49.720;6.576;2022-08-19T02:03:22;4.80;;;4.60;;
17614;SDS011;8926;49.720;6.576;2022-08-19T02:05:53;5.40;;;5.10;;
17614;SDS011;8926;49.720;6.576;2022-08-19T02:08:20;4.80;;;4.60;;
17614;SDS011;8926;49.720;6.576;2022-08-19T02:10:45;4.63;;;4.37;;
17614;SDS011;8926;49.720;6.576;2022-08-19T02:13:11;4.97;;;4.77;;
17614;SDS011;8926;49.720;6.576;2022-08-19T02:15:38;4.80;;;4.60;;
17614;SDS011;8926;49.720;6.576;2022-08-19T02:18:04;4.63;;;4.43;;
17614;SDS011;8926;49.720;6.576;2022-08-19T02:20:30;4.90;;;4.67;;
17614;SDS011;8926;49.720;6.576;2022-08-19T02:22:55;4.80;;;4.60;;
17614;SDS011;8926;49.720;6.576;2022-08-19T02:25:21;4.70;;;4.50;;
17614;SDS011;8926;49.720;6.576;2022-08-19T02:27:46;5.17;;;4.87;;
17614;SDS011;8926;49.720;6.576;2022-08-19T02:30:13;4.80;;;4.60;;
17614;SDS011;8926;49.720;6.576;2022-08-19T02:32:43;4.30;;;4.10;;
17614;SDS011;8926;49.720;6.576;2022-08-19T02:35:13;4.77;;;4.57;;
17614;SDS011;8926;49.720;6.576;2022-08-19T02:37:39;5.23;;;4.93;;
17614;SDS011;8926;49.720;6.576;2022-08-19T02:40:24;4.50;;;4.30;;
17614;SDS011;8926;49.720;6.576;2022-08-19T02:42:49;4.60;;;4.40;;
17614;SDS011;8926;49.720;6.576;2022-08-19T02:45:15;5.87;;;5.57;;
17614;SDS011;8926;49.720;6.576;2022-08-19T02:47:41;5.30;;;5.00;;
17614;SDS011;8926;49.720;6.576;2022-08-19T02:50:06;5.10;;;4.80;;
17614;SDS011;8926;49.720;6.576;2022-08-19T02:52:33;5.70;;;5.40;;
17614;SDS011;8926;49.720;6.576;2022-08-19T02:54:59;5.43;;;5.17;;
17614;SDS011;8926;49.720;6.576;2022-08-19T02:57:25;5.30;;;5.00;;
17614;SDS011;8926;49.720;6.576;2022-08-19T02:59:50;4.70;;;4.50;;
17614;SDS011;8926;49.720;6.576;2022-08-19T03:02:17;5.13;;;4.83;;
17614;SDS011;8926;49.720;6.576;2022-08-19T03:04:42;5.13;;;4.83;;
17614;SDS011;8926;49.720;6.576;2022-08-19T03:07:08;4.27;;;4.07;;
17614;SDS011;8926;49.720;6.576;2022-08-19T03:09:35;4.50;;;4.30;;
17614;SDS011;8926;49.720;6.576;2022-08-19T03:12:02;4.27;;;4.07;;
17614;SDS011;8926;49.720;6.576;2022-08-19T03:14:30;5.20;;;4.90;;
17614;SDS011;8926;49.720;6.576;2022-08-19T03:16:56;4.97;;;4.77;;
17614;SDS011;8926;49.720;6.576;2022-08-19T03:19:22;5.30;;;5.00;;
17614;SDS011;8926;49.720;6.576;2022-08-19T03:21:48;7.23;;;6.83;;
17614;SDS011;8926;49.720;6.576;2022-08-19T03:24:14;6.93;;;6.53;;
17614;SDS011;8926;49.720;6.576;2022-08-19T03:26:41;6.43;;;6.03;;
17614;SDS011;8926;49.720;6.576;2022-08-19T03:29:08;5.50;;;5.20;;
17614;SDS011;8926;49.720;6.576;2022-08-19T03:31:35;5.77;;;5.47;;
17614;SDS011;8926;49.720;6.576;2022-08-19T03:34:02;4.83;;;4.63;;
17614;SDS011;8926;49.720;6.576;2022-08-19T03:36:27;4.90;;;4.60;;
17614;SDS011;8926;49.720;6.576;2022-08-19T03:38:54;4.67;;;4.47;;
17614;SDS011;8926;49.720;6.576;2022-08-19T03:41:24;4.90;;;4.67;;
17614;SDS011;8926;49.720;6.576;2022-08-19T03:43:57;4.40;;;4.20;;
17614;SDS011;8926;49.720;6.576;2022-08-19T03:46:24;4.70;;;4.50;;
17614;SDS011;8926;49.720;6.576;2022-08-19T03:48:52;4.33;;;4.13;;
17614;SDS011;8926;49.720;6.576;2022-08-19T03:51:23;4.20;;;4.00;;
17614;SDS011;8926;49.720;6.576;2022-08-19T03:53:50;4.83;;;4.53;;
17614;SDS011;8926;49.720;6.576;2022-08-19T03:56:17;4.93;;;4.73;;
17614;SDS011;8926;49.720;6.576;2022-08-19T03:58:43;4.70;;;4.40;;
17614;SDS011;8926;49.720;6.576;2022-08-19T04:01:10;3.90;;;3.70;;
17614;SDS011;8926;49.720;6.576;2022-08-19T04:03:36;3.87;;;3.67;;
17614;SDS011;8926;49.720;6.576;2022-08-19T04:06:16;5.60;;;5.30;;
17614;SDS011;8926;49.720;6.576;2022-08-19T04:08:43;6.97;;;6.57;;
17614;SDS011;8926;49.720;6.576;2022-08-19T04:11:11;6.23;;;5.93;;
17614;SDS011;8926;49.720;6.576;2022-08-19T04:13:39;6.10;;;5.80;;
17614;SDS011;8926;49.720;6.576;2022-08-19T04:16:05;5.80;;;5.50;;
17614;SDS011;8926;49.720;6.576;2022-08-19T04:18:32;7.00;;;6.60;;
17614;SDS011;8926;49.720;6.576;2022-08-19T04:20:58;7.43;;;7.00;;
17614;SDS011;8926;49.720;6.576;2022-08-19T04:23:24;5.90;;;5.60;;
17614;SDS011;8926;49.720;6.576;2022-08-19T04:25:50;5.30;;;5.00;;
17614;SDS011;8926;49.720;6.576;2022-08-19T04:28:15;5.00;;;4.80;;
17614;SDS011;8926;49.720;6.576;2022-08-19T04:30:42;5.33;;;5.03;;
17614;SDS011;8926;49.720;6.576;2022-08-19T04:33:10;4.60;;;4.40;;
17614;SDS011;8926;49.720;6.576;2022-08-19T04:35:37;4.97;;;4.73;;
17614;SDS011;8926;49.720;6.576;2022-08-19T04:38:08;4.43;;;4.20;;
17614;SDS011;8926;49.720;6.576;2022-08-19T04:40:39;5.50;;;5.20;;
17614;SDS011;8926;49.720;6.576;2022-08-19T04:43:24;4.80;;;4.50;;
17614;SDS011;8926;49.720;6.576;2022-08-19T04:45:49;4.60;;;4.37;;
17614;SDS011;8926;49.720;6.576;2022-08-19T04:48:16;4.47;;;4.27;;
17614;SDS011;8926;49.720;6.576;2022-08-19T04:50:42;4.43;;;4.23;;
17614;SDS011;8926;49.720;6.576;2022-08-19T04:53:08;5.60;;;5.30;;
17614;SDS011;8926;49.720;6.576;2022-08-19T04:55:34;5.07;;;4.77;;
17614;SDS011;8926;49.720;6.576;2022-08-19T04:58:00;7.40;;;7.00;;
17614;SDS011;8926;49.720;6.576;2022-08-19T05:00:26;6.50;;;6.13;;
17614;SDS011;8926;49.720;6.576;2022-08-19T05:02:52;5.70;;;5.40;;
17614;SDS011;8926;49.720;6.576;2022-08-19T05:05:17;5.90;;;5.60;;
17614;SDS011;8926;49.720;6.576;2022-08-19T05:07:43;5.50;;;5.20;;
17614;SDS011;8926;49.720;6.576;2022-08-19T05:10:08;5.60;;;5.30;;
17614;SDS011;8926;49.720;6.576;2022-08-19T05:12:34;4.60;;;4.40;;
17614;SDS011;8926;49.720;6.576;2022-08-19T05:14:59;4.60;;;4.40;;
17614;SDS011;8926;49.720;6.576;2022-08-19T05:17:25;5.77;;;5.47;;
17614;SDS011;8926;49.720;6.576;2022-08-19T05:19:51;5.00;;;4.80;;
17614;SDS011;8926;49.720;6.576;2022-08-19T05:22:35;6.23;;;5.90;;
17614;SDS011;8926;49.720;6.576;2022-08-19T05:25:06;6.93;;;6.53;;
17614;SDS011;8926;49.720;6.576;2022-08-19T05:27:33;9.07;;;8.50;;
17614;SDS011;8926;49.720;6.576;2022-08-19T05:29:59;6.77;;;6.37;;
17614;SDS011;8926;49.720;6.576;2022-08-19T05:32:26;6.40;;;6.10;;
17614;SDS011;8926;49.720;6.576;2022-08-19T05:34:52;6.90;;;6.50;;
17614;SDS011;8926;49.720;6.576;2022-08-19T05:37:17;5.20;;;4.90;;
17614;SDS011;8926;49.720;6.576;2022-08-19T05:39:43;5.30;;;5.00;;
17614;SDS011;8926;49.720;6.576;2022-08-19T05:42:09;4.90;;;4.60;;
17614;SDS011;8926;49.720;6.576;2022-08-19T05:44:37;4.73;;;4.53;;
17614;SDS011;8926;49.720;6.576;2022-08-19T05:47:08;5.10;;;4.80;;
17614;SDS011;8926;49.720;6.576;2022-08-19T05:49:34;5.10;;;4.90;;
17614;SDS011;8926;49.720;6.576;2022-08-19T05:52:01;4.27;;;4.07;;
17614;SDS011;8926;49.720;6.576;2022-08-19T05:54:29;4.63;;;4.33;;
17614;SDS011;8926;49.720;6.576;2022-08-19T05:56:54;4.60;;;4.40;;
17614;SDS011;8926;49.720;6.576;2022-08-19T05:59:20;4.70;;;4.50;;
17614;SDS011;8926;49.720;6.576;2022-08-19T06:01:47;4.80;;;4.60;;
17614;SDS011;8926;49.720;6.576;2022-08-19T06:04:17;7.17;;;6.70;;
17614;SDS011;8926;49.720;6.576;2022-08-19T06:06:44;7.27;;;6.70;;
17614;SDS011;8926;49.720;6.576;2022-08-19T06:09:11;7.10;;;6.70;;
17614;SDS011;8926;49.720;6.576;2022-08-19T06:11:38;5.97;;;5.67;;
17614;SDS011;8926;49.720;6.576;2022-08-19T06:14:08;7.67;;;7.27;;
17614;SDS011;8926;49.720;6.576;2022-08-19T06:16:36;6.57;;;6.17;;
17614;SDS011;8926;49.720;6.576;2022-08-19T06:19:04;7.40;;;7.00;;
17614;SDS011;8926;49.720;6.576;2022-08-19T06:21:31;6.13;;;5.80;;
17614;SDS011;8926;49.720;6.576;2022-08-19T06:23:58;5.50;;;5.17;;
17614;SDS011;8926;49.720;6.576;2022-08-19T06:26:24;6.07;;;5.77;;
17614;SDS011;8926;49.720;6.576;2022-08-19T06:28:51;6.60;;;6.30;;
17614;SDS011;8926;49.720;6.576;2022-08-19T06:31:18;5.87;;;5.57;;
17614;SDS011;8926;49.720;6.576;2022-08-19T06:33:46;5.27;;;4.97;;
17614;SDS011;8926;49.720;6.576;2022-08-19T06:36:19;7.17;;;6.77;;
17614;SDS011;8926;49.720;6.576;2022-08-19T06:38:56;6.33;;;5.93;;
17614;SDS011;8926;49.720;6.576;2022-08-19T06:41:23;7.20;;;6.80;;
17614;SDS011;8926;49.720;6.576;2022-08-19T06:43:49;6.47;;;6.07;;
17614;SDS011;8926;49.720;6.576;2022-08-19T06:46:15;8.57;;;7.73;;
17614;SDS011;8926;49.720;6.576;2022-08-19T06:48:43;7.70;;;7.20;;
17614;SDS011;8926;49.720;6.576;2022-08-19T06:51:09;6.90;;;6.50;;
17614;SDS011;8926;49.720;6.576;2022-08-19T06:53:34;7.60;;;7.10;;
17614;SDS011;8926;49.720;6.576;2022-08-19T06:55:59;5.73;;;5.43;;
17614;SDS011;8926;49.720;6.576;2022-08-19T06:58:27;5.77;;;5.47;;
17614;SDS011;8926;49.720;6.576;2022-08-19T07:00:57;6.40;;;6.00;;
17614;SDS011;8926;49.720;6.576;2022-08-19T07:03:30;7.10;;;6.70;;
17614;SDS011;8926;49.720;6.576;2022-08-19T07:06:02;7.40;;;7.00;;
17614;SDS011;8926;49.720;6.576;2022-08-19T07:08:36;7.03;;;6.63;;
17614;SDS011;8926;49.720;6.576;2022-08-19T07:11:06;6.70;;;6.30;;
17614;SDS011;8926;49.720;6.576;2022-08-19T07:13:33;5.50;;;5.20;;
17614;SDS011;8926;49.720;6.576;2022-08-19T07:16:03;8.17;;;7.67;;
17614;SDS011;8926;49.720;6.576;2022-08-19T07:18:30;6.33;;;6.03;;
17614;SDS011;8926;49.720;6.576;2022-08-19T07:21:05;7.23;;;6.83;;
17614;SDS011;8926;49.720;6.576;2022-08-19T07:23:34;6.63;;;6.33;;
17614;SDS011;8926;49.720;6.576;2022-08-19T07:26:09;6.53;;;6.13;;
17614;SDS011;8926;49.720;6.576;2022-08-19T07:28:37;6.10;;;5.80;;
17614;SDS011;8926;49.720;6.576;2022-08-19T07:31:09;7.87;;;7.37;;
17614;SDS011;8926;49.720;6.576;2022-08-19T07:33:36;6.07;;;5.77;;
17614;SDS011;8926;49.720;6.576;2022-08-19T07:36:06;7.37;;;6.97;;
17614;SDS011;8926;49.720;6.576;2022-08-19T07:38:35;6.23;;;5.83;;
17614;SDS011;8926;49.720;6.576;2022-08-19T07:41:00;7.40;;;7.00;;
17614;SDS011;8926;49.720;6.576;2022-08-19T07:43:26;7.13;;;6.73;;
17614;SDS011;8926;49.720;6.576;2022-08-19T07:45:52;6.33;;;5.93;;
17614;SDS011;8926;49.720;6.576;2022-08-19T07:48:21;7.87;;;7.47;;
17614;SDS011;8926;49.720;6.576;2022-08-19T07:50:52;6.20;;;5.90;;
17614;SDS011;8926;49.720;6.576;2022-08-19T07:53:19;8.37;;;7.87;;
17614;SDS011;8926;49.720;6.576;2022-08-19T07:55:44;6.90;;;6.50;;
17614;SDS011;8926;49.720;6.576;2022-08-19T07:58:11;7.33;;;6.93;;
17614;SDS011;8926;49.720;6.576;2022-08-19T08:00:38;6.10;;;5.80;;
17614;SDS011;8926;49.720;6.576;2022-08-19T08:03:03;7.63;;;7.23;;
17614;SDS011;8926;49.720;6.576;2022-08-19T08:05:28;5.13;;;4.87;;
17614;SDS011;8926;49.720;6.576;2022-08-19T08:08:12;5.57;;;5.27;;
17614;SDS011;8926;49.720;6.576;2022-08-19T08:11:07;4.97;;;4.77;;
17614;SDS011;8926;49.720;6.576;2022-08-19T08:13:32;5.20;;;4.90;;
17614;SDS011;8926;49.720;6.576;2022-08-19T08:16:00;6.33;;;6.03;;
17614;SDS011;8926;49.720;6.576;2022-08-19T08:18:26;6.17;;;5.87;;
17614;SDS011;8926;49.720;6.576;2022-08-19T08:20:51;6.37;;;5.97;;
17614;SDS011;8926;49.720;6.576;2022-08-19T08:23:16;6.33;;;6.03;;
17614;SDS011;8926;49.720;6.576;2022-08-19T08:25:49;5.80;;;5.50;;
17614;SDS011;8926;49.720;6.576;2022-08-19T08:28:19;5.83;;;5.53;;
17614;SDS011;8926;49.720;6.576;2022-08-19T08:30:46;5.67;;;5.37;;
17614;SDS011;8926;49.720;6.576;2022-08-19T08:33:13;6.23;;;5.83;;
17614;SDS011;8926;49.720;6.576;2022-08-19T08:35:42;5.77;;;5.40;;
17614;SDS011;8926;49.720;6.576;2022-08-19T08:38:07;5.17;;;4.87;;
17614;SDS011;8926;49.720;6.576;2022-08-19T08:40:56;5.53;;;5.23;;
17614;SDS011;8926;49.720;6.576;2022-08-19T08:43:33;5.60;;;5.30;;
17614;SDS011;8926;49.720;6.576;2022-08-19T08:48:49;5.07;;;4.77;;
17614;SDS011;8926;49.720;6.576;2022-08-19T08:51:22;6.70;;;6.33;;
17614;SDS011;8926;49.720;6.576;2022-08-19T08:53:52;5.93;;;5.63;;
17614;SDS011;8926;49.720;6.576;2022-08-19T08:56:18;5.03;;;4.73;;
17614;SDS011;8926;49.720;6.576;2022-08-19T08:59:03;4.27;;;4.07;;
17614;SDS011;8926;49.720;6.576;2022-08-19T09:01:33;4.53;;;4.30;;
17614;SDS011;8926;49.720;6.576;2022-08-19T09:03:59;4.20;;;4.00;;
17614;SDS011;8926;49.720;6.576;2022-08-19T09:09:18;4.47;;;4.27;;
17614;SDS011;8926;49.720;6.576;2022-08-19T09:15:00;4.50;;;4.20;;
17614;SDS011;8926;49.720;6.576;2022-08-19T09:17:30;4.70;;;4.40;;
17614;SDS011;8926;49.720;6.576;2022-08-19T09:22:35;4.53;;;4.27;;
17614;SDS011;8926;49.720;6.576;2022-08-19T09:25:02;6.30;;;5.90;;
17614;SDS011;8926;49.720;6.576;2022-08-19T09:27:28;5.27;;;4.87;;
17614;SDS011;8926;49.720;6.576;2022-08-19T09:29:54;4.70;;;4.50;;
17614;SDS011;8926;49.720;6.576;2022-08-19T09:32:20;4.47;;;4.27;;
17614;SDS011;8926;49.720;6.576;2022-08-19T09:34:47;5.23;;;4.93;;
17614;SDS011;8926;49.720;6.576;2022-08-19T09:37:12;5.07;;;4.77;;
17614;SDS011;8926;49.720;6.576;2022-08-19T09:39:38;5.47;;;5.17;;
17614;SDS011;8926;49.720;6.576;2022-08-19T09:42:08;4.83;;;4.57;;
17614;SDS011;8926;49.720;6.576;2022-08-19T09:44:38;4.90;;;4.70;;
17614;SDS011;8926;49.720;6.576;2022-08-19T09:47:05;6.17;;;5.80;;
17614;SDS011;8926;49.720;6.576;2022-08-19T09:49:30;5.90;;;5.60;;
17614;SDS011;8926;49.720;6.576;2022-08-19T09:51:56;4.87;;;4.57;;
17614;SDS011;8926;49.720;6.576;2022-08-19T09:54:21;4.57;;;4.30;;
17614;SDS011;8926;49.720;6.576;2022-08-19T09:56:47;5.53;;;5.23;;
17614;SDS011;8926;49.720;6.576;2022-08-19T09:59:12;4.30;;;4.10;;
17614;SDS011;8926;49.720;6.576;2022-08-19T10:01:38;4.80;;;4.50;;
17614;SDS011;8926;49.720;6.576;2022-08-19T10:04:03;4.90;;;4.70;;
17614;SDS011;8926;49.720;6.576;2022-08-19T10:06:36;5.43;;;5.13;;
17614;SDS011;8926;49.720;6.576;2022-08-19T10:09:04;4.87;;;4.57;;
17614;SDS011;8926;49.720;6.576;2022-08-19T10:11:32;6.47;;;5.87;;
17614;SDS011;8926;49.720;6.576;2022-08-19T10:13:59;5.17;;;4.87;;
17614;SDS011;8926;49.720;6.576;2022-08-19T10:16:26;4.73;;;4.43;;
17614;SDS011;8926;49.720;6.576;2022-08-19T10:18:51;3.80;;;3.60;;
17614;SDS011;8926;49.720;6.576;2022-08-19T10:21:19;4.50;;;4.30;;
17614;SDS011;8926;49.720;6.576;2022-08-19T10:23:47;4.77;;;4.57;;
17614;SDS011;8926;49.720;6.576;2022-08-19T10:26:15;4.10;;;3.90;;
17614;SDS011;8926;49.720;6.576;2022-08-19T10:28:45;4.10;;;3.90;;
17614;SDS011;8926;49.720;6.576;2022-08-19T10:31:15;4.37;;;4.17;;
17614;SDS011;8926;49.720;6.576;2022-08-19T10:33:44;4.40;;;4.20;;
17614;SDS011;8926;49.720;6.576;2022-08-19T10:36:11;3.23;;;3.13;;
17614;SDS011;8926;49.720;6.576;2022-08-19T10:38:40;4.20;;;4.00;;
17614;SDS011;8926;49.720;6.576;2022-08-19T10:41:10;4.10;;;3.90;;
17614;SDS011;8926;49.720;6.576;2022-08-19T10:43:37;4.30;;;4.10;;
17614;SDS011;8926;49.720;6.576;2022-08-19T10:46:08;4.50;;;4.30;;
17614;SDS011;8926;49.720;6.576;2022-08-19T10:48:35;5.13;;;4.77;;
17614;SDS011;8926;49.720;6.576;2022-08-19T10:51:01;6.57;;;6.07;;
17614;SDS011;8926;49.720;6.576;2022-08-19T10:53:45;4.40;;;4.10;;
17614;SDS011;8926;49.720;6.576;2022-08-19T10:56:11;4.63;;;4.33;;
17614;SDS011;8926;49.720;6.576;2022-08-19T10:58:54;3.70;;;3.50;;
17614;SDS011;8926;49.720;6.576;2022-08-19T11:01:21;2.90;;;2.80;;
17614;SDS011;8926;49.720;6.576;2022-08-19T11:03:46;4.13;;;3.93;;
17614;SDS011;8926;49.720;6.576;2022-08-19T11:06:12;4.17;;;3.97;;
17614;SDS011;8926;49.720;6.576;2022-08-19T11:08:37;3.80;;;3.60;;
17614;SDS011;8926;49.720;6.576;2022-08-19T11:11:03;4.80;;;4.50;;
17614;SDS011;8926;49.720;6.576;2022-08-19T11:13:30;4.60;;;4.30;;
17614;SDS011;8926;49.720;6.576;2022-08-19T11:16:17;3.67;;;3.47;;
17614;SDS011;8926;49.720;6.576;2022-08-19T11:18:46;4.10;;;3.90;;
17614;SDS011;8926;49.720;6.576;2022-08-19T11:21:26;3.70;;;3.50;;
17614;SDS011;8926;49.720;6.576;2022-08-19T11:23:54;4.73;;;4.43;;
17614;SDS011;8926;49.720;6.576;2022-08-19T11:26:23;4.47;;;4.17;;
17614;SDS011;8926;49.720;6.576;2022-08-19T11:28:49;4.20;;;3.90;;
17614;SDS011;8926;49.720;6.576;2022-08-19T11:31:19;4.20;;;4.00;;
17614;SDS011;8926;49.720;6.576;2022-08-19T11:33:46;4.50;;;4.10;;
17614;SDS011;8926;49.720;6.576;2022-08-19T11:36:15;4.00;;;3.80;;
17614;SDS011;8926;49.720;6.576;2022-08-19T11:38:41;4.60;;;4.30;;
17614;SDS011;8926;49.720;6.576;2022-08-19T11:41:07;3.50;;;3.30;;
17614;SDS011;8926;49.720;6.576;2022-08-19T11:43:33;3.70;;;3.50;;
17614;SDS011;8926;49.720;6.576;2022-08-19T11:46:02;4.07;;;3.77;;
17614;SDS011;8926;49.720;6.576;2022-08-19T11:48:29;4.47;;;4.20;;
17614;SDS011;8926;49.720;6.576;2022-08-19T11:50:54;3.73;;;3.53;;
17614;SDS011;8926;49.720;6.576;2022-08-19T11:53:22;3.80;;;3.60;;
17614;SDS011;8926;49.720;6.576;2022-08-19T11:55:48;3.07;;;2.87;;
17614;SDS011;8926;49.720;6.576;2022-08-19T11:58:15;3.60;;;3.40;;
17614;SDS011;8926;49.720;6.576;2022-08-19T12:00:42;3.47;;;3.30;;
17614;SDS011;8926;49.720;6.576;2022-08-19T12:03:10;3.97;;;3.77;;
17614;SDS011;8926;49.720;6.576;2022-08-19T12:05:37;4.13;;;3.93;;
17614;SDS011;8926;49.720;6.576;2022-08-19T12:08:04;4.83;;;4.53;;
17614;SDS011;8926;49.720;6.576;2022-08-19T12:10:30;4.00;;;3.80;;
17614;SDS011;8926;49.720;6.576;2022-08-19T12:12:55;3.30;;;3.10;;
17614;SDS011;8926;49.720;6.576;2022-08-19T12:15:20;3.20;;;3.10;;
17614;SDS011;8926;49.720;6.576;2022-08-19T12:17:46;4.47;;;4.20;;
17614;SDS011;8926;49.720;6.576;2022-08-19T12:20:11;4.57;;;4.37;;
17614;SDS011;8926;49.720;6.576;2022-08-19T12:22:42;3.90;;;3.70;;
17614;SDS011;8926;49.720;6.576;2022-08-19T12:25:09;4.17;;;3.90;;
17614;SDS011;8926;49.720;6.576;2022-08-19T12:27:35;4.50;;;4.30;;
17614;SDS011;8926;49.720;6.576;2022-08-19T12:30:02;4.10;;;3.90;;
17614;SDS011;8926;49.720;6.576;2022-08-19T12:32:28;3.10;;;2.90;;
17614;SDS011;8926;49.720;6.576;2022-08-19T12:34:54;3.73;;;3.53;;
17614;SDS011;8926;49.720;6.576;2022-08-19T12:37:19;3.00;;;2.90;;
17614;SDS011;8926;49.720;6.576;2022-08-19T12:39:45;2.90;;;2.80;;
17614;SDS011;8926;49.720;6.576;2022-08-19T12:42:11;2.93;;;2.83;;
17614;SDS011;8926;49.720;6.576;2022-08-19T12:44:38;3.60;;;3.40;;
17614;SDS011;8926;49.720;6.576;2022-08-19T12:47:04;2.80;;;2.70;;
17614;SDS011;8926;49.720;6.576;2022-08-19T12:49:31;2.77;;;2.63;;
17614;SDS011;8926;49.720;6.576;2022-08-19T12:51:58;2.70;;;2.60;;
17614;SDS011;8926;49.720;6.576;2022-08-19T12:54:27;2.53;;;2.43;;
17614;SDS011;8926;49.720;6.576;2022-08-19T12:56:54;3.40;;;3.20;;
17614;SDS011;8926;49.720;6.576;2022-08-19T12:59:20;2.60;;;2.50;;
17614;SDS011;8926;49.720;6.576;2022-08-19T13:01:46;3.30;;;3.10;;
17614;SDS011;8926;49.720;6.576;2022-08-19T13:04:11;3.17;;;3.07;;
17614;SDS011;8926;49.720;6.576;2022-08-19T13:06:36;3.67;;;3.47;;
17614;SDS011;8926;49.720;6.576;2022-08-19T13:09:02;6.03;;;5.53;;
17614;SDS011;8926;49.720;6.576;2022-08-19T13:11:28;4.70;;;4.50;;
17614;SDS011;8926;49.720;6.576;2022-08-19T13:13:57;4.50;;;4.20;;
17614;SDS011;8926;49.720;6.576;2022-08-19T13:16:23;4.43;;;4.23;;
17614;SDS011;8926;49.720;6.576;2022-08-19T13:18:48;3.50;;;3.30;;
17614;SDS011;8926;49.720;6.576;2022-08-19T13:21:16;2.70;;;2.60;;
17614;SDS011;8926;49.720;6.576;2022-08-19T13:23:45;3.00;;;2.90;;
17614;SDS011;8926;49.720;6.576;2022-08-19T13:26:10;3.47;;;3.27;;
17614;SDS011;8926;49.720;6.576;2022-08-19T13:28:37;3.50;;;3.30;;
17614;SDS011;8926;49.720;6.576;2022-08-19T13:31:23;3.30;;;3.10;;
17614;SDS011;8926;49.720;6.576;2022-08-19T13:34:08;3.10;;;3.00;;
17614;SDS011;8926;49.720;6.576;2022-08-19T13:36:34;2.77;;;2.67;;
17614;SDS011;8926;49.720;6.576;2022-08-19T13:39:00;2.80;;;2.70;;
17614;SDS011;8926;49.720;6.576;2022-08-19T13:41:25;2.57;;;2.47;;
17614;SDS011;8926;49.720;6.576;2022-08-19T13:43:52;3.70;;;3.50;;
17614;SDS011;8926;49.720;6.576;2022-08-19T13:46:17;4.00;;;3.77;;
17614;SDS011;8926;49.720;6.576;2022-08-19T13:48:44;3.70;;;3.50;;
17614;SDS011;8926;49.720;6.576;2022-08-19T13:51:10;4.00;;;3.80;;
17614;SDS011;8926;49.720;6.576;2022-08-19T13:53:36;4.17;;;3.97;;
17614;SDS011;8926;49.720;6.576;2022-08-19T13:56:06;4.00;;;3.80;;
17614;SDS011;8926;49.720;6.576;2022-08-19T13:58:37;4.00;;;3.80;;
17614;SDS011;8926;49.720;6.576;2022-08-19T14:01:03;3.27;;;3.07;;
17614;SDS011;8926;49.720;6.576;2022-08-19T14:03:30;2.40;;;2.30;;
17614;SDS011;8926;49.720;6.576;2022-08-19T14:05:56;3.20;;;3.00;;
17614;SDS011;8926;49.720;6.576;2022-08-19T14:08:21;2.70;;;2.60;;
17614;SDS011;8926;49.720;6.576;2022-08-19T14:10:47;2.77;;;2.67;;
17614;SDS011;8926;49.720;6.576;2022-08-19T14:13:18;2.60;;;2.50;;
17614;SDS011;8926;49.720;6.576;2022-08-19T14:15:45;2.30;;;2.20;;
17614;SDS011;8926;49.720;6.576;2022-08-19T14:18:11;2.87;;;2.77;;
17614;SDS011;8926;49.720;6.576;2022-08-19T14:20:36;2.73;;;2.63;;
17614;SDS011;8926;49.720;6.576;2022-08-19T14:23:02;2.50;;;2.40;;
17614;SDS011;8926;49.720;6.576;2022-08-19T14:25:28;2.47;;;2.37;;
17614;SDS011;8926;49.720;6.576;2022-08-19T14:27:55;2.40;;;2.30;;
17614;SDS011;8926;49.720;6.576;2022-08-19T14:30:26;2.30;;;2.20;;
17614;SDS011;8926;49.720;6.576;2022-08-19T14:32:55;2.47;;;2.37;;
17614;SDS011;8926;49.720;6.576;2022-08-19T14:35:23;1.63;;;1.60;;
17614;SDS011;8926;49.720;6.576;2022-08-19T14:37:49;1.90;;;1.80;;
17614;SDS011;8926;49.720;6.576;2022-08-19T14:40:16;1.50;;;1.50;;
17614;SDS011;8926;49.720;6.576;2022-08-19T14:42:45;1.30;;;1.30;;
17614;SDS011;8926;49.720;6.576;2022-08-19T14:45:11;1.10;;;1.10;;
17614;SDS011;8926;49.720;6.576;2022-08-19T14:47:37;1.00;;;1.00;;
17614;SDS011;8926;49.720;6.576;2022-08-19T14:50:04;1.10;;;1.10;;
17614;SDS011;8926;49.720;6.576;2022-08-19T14:52:33;1.40;;;1.40;;
17614;SDS011;8926;49.720;6.576;2022-08-19T14:54:59;1.23;;;1.23;;
17614;SDS011;8926;49.720;6.576;2022-08-19T14:57:24;0.90;;;0.90;;
17614;SDS011;8926;49.720;6.576;2022-08-19T14:59:50;0.50;;;0.50;;
17614;SDS011;8926;49.720;6.576;2022-08-19T15:02:15;0.63;;;0.63;;
17614;SDS011;8926;49.720;6.576;2022-08-19T15:04:41;0.60;;;0.60;;
17614;SDS011;8926;49.720;6.576;2022-08-19T15:07:06;0.50;;;0.50;;
17614;SDS011;8926;49.720;6.576;2022-08-19T15:09:31;0.77;;;0.43;;
17614;SDS011;8926;49.720;6.576;2022-08-19T15:11:57;0.27;;;0.27;;
17614;SDS011;8926;49.720;6.576;2022-08-19T15:14:24;0.30;;;0.30;;
17614;SDS011;8926;49.720;6.576;2022-08-19T15:16:51;0.70;;;0.50;;